Time;durP1;ratioP1;P1;durP2;ratioP2;P2;SDS_P1;SDS_P2;PMS_P1;PMS_P2;Temp;Humidity;BMP_temperature;BMP_pressure;BME280_temperature;BME280_humidity;BME280_pressure;Samples;Min_cycle;Max_cycle;Signal;HPM_P1;HPM_P2
2023/04/16 00:00:41;;;;;;;18.00;3.60;;;;;;;8.23;100.00;101790.31;4982445;28;20050;-77
2023/04/16 00:03:06;;;;;;;15.18;3.83;;;;;;;8.29;100.00;101790.00;4972978;28;20039;-78
2023/04/16 00:05:32;;;;;;;12.82;3.67;;;;;;;8.30;100.00;101786.31;4968988;28;20454;-77
2023/04/16 00:07:57;;;;;;;12.38;2.85;;;;;;;8.35;100.00;101795.13;4968260;28;20043;-77
2023/04/16 00:10:22;;;;;;;10.15;3.58;;;;;;;8.30;100.00;101786.31;4958923;28;20425;-76
2023/04/16 00:12:48;;;;;;;14.73;3.42;;;;;;;8.31;100.00;101792.66;4974766;28;20051;-76
2023/04/16 00:15:13;;;;;;;16.40;2.95;;;;;;;8.22;100.00;101797.63;4961748;28;20094;-77
2023/04/16 00:17:39;;;;;;;15.25;4.00;;;;;;;8.22;100.00;101792.19;4986967;28;20126;-76
2023/04/16 00:20:05;;;;;;;18.30;3.53;;;;;;;8.17;100.00;101791.56;4978874;28;20490;-77
2023/04/16 00:22:30;;;;;;;8.50;3.70;;;;;;;8.23;100.00;101796.69;4968768;28;20094;-76
2023/04/16 00:24:56;;;;;;;15.10;3.42;;;;;;;8.25;100.00;101802.94;4983617;28;20399;-77
2023/04/16 00:27:21;;;;;;;21.52;3.90;;;;;;;8.21;100.00;101801.31;4984481;28;20038;-76
2023/04/16 00:29:47;;;;;;;15.82;3.75;;;;;;;8.12;100.00;101793.66;4974192;28;20035;-76
2023/04/16 00:32:12;;;;;;;20.92;3.78;;;;;;;8.07;100.00;101790.28;4971501;28;20514;-76
2023/04/16 00:34:38;;;;;;;15.27;4.38;;;;;;;8.14;100.00;101797.16;4994568;28;20086;-76
2023/04/16 00:37:03;;;;;;;12.15;3.75;;;;;;;8.07;100.00;101787.56;4972356;28;20038;-78
2023/04/16 00:39:29;;;;;;;15.15;4.32;;;;;;;8.11;100.00;101783.69;4971362;28;20402;-76
2023/04/16 00:41:54;;;;;;;10.73;3.50;;;;;;;8.09;100.00;101789.22;4970906;28;20074;-76
2023/04/16 00:44:20;;;;;;;15.73;4.25;;;;;;;8.05;100.00;101790.38;4961913;28;20043;-77
2023/04/16 00:46:45;;;;;;;12.00;3.33;;;;;;;8.06;100.00;101794.84;4982039;28;20129;-77
2023/04/16 00:49:14;;;;;;;12.23;4.35;;;;;;;8.10;100.00;101782.81;4963100;28;20100;-77
2023/04/16 00:51:40;;;;;;;13.40;4.50;;;;;;;8.10;100.00;101792.88;4978472;28;20577;-77
2023/04/16 00:54:05;;;;;;;22.20;4.55;;;;;;;8.11;100.00;101791.88;4975417;28;20055;-77
2023/04/16 00:56:32;;;;;;;17.67;5.30;;;;;;;8.02;100.00;101793.25;4978665;28;20034;-78
2023/04/16 00:59:00;;;;;;;21.42;5.10;;;;;;;8.05;100.00;101794.91;4931851;29;20046;-78
2023/04/16 01:01:26;;;;;;;21.17;4.53;;;;;;;8.07;100.00;101795.75;4957533;28;20042;-78
2023/04/16 01:03:51;;;;;;;26.58;6.18;;;;;;;8.06;100.00;101789.38;4954592;28;20087;-77
2023/04/16 01:06:17;;;;;;;26.80;5.38;;;;;;;7.98;100.00;101783.47;4975174;28;20122;-78
2023/04/16 01:08:43;;;;;;;18.73;4.63;;;;;;;8.00;100.00;101791.56;4961188;28;20122;-77
2023/04/16 01:11:13;;;;;;;25.98;6.45;;;;;;;8.06;100.00;101791.25;4971152;28;20094;-78
2023/04/16 01:13:39;;;;;;;19.48;4.82;;;;;;;8.05;100.00;101787.66;4986604;28;20041;-77
2023/04/16 01:16:06;;;;;;;22.58;5.45;;;;;;;8.05;100.00;101775.84;4942037;28;20035;-77
2023/04/16 01:18:32;;;;;;;15.10;5.22;;;;;;;8.17;100.00;101787.97;4997519;28;20456;-78
2023/04/16 01:20:58;;;;;;;20.42;4.82;;;;;;;8.10;100.00;101790.13;4997905;28;20041;-77
2023/04/16 01:23:24;;;;;;;32.85;5.85;;;;;;;8.10;100.00;101782.81;4983169;28;20101;-77
2023/04/16 01:25:50;;;;;;;15.57;5.00;;;;;;;8.09;100.00;101789.22;4958915;28;20042;-77
2023/04/16 01:28:15;;;;;;;20.38;4.70;;;;;;;8.07;100.00;101784.84;4950259;28;20031;-77
2023/04/16 01:30:41;;;;;;;22.15;5.65;;;;;;;8.07;100.00;101795.75;4971533;28;20036;-77
2023/04/16 01:33:09;;;;;;;22.45;4.70;;;;;;;8.06;100.00;101783.94;4958287;28;20524;-77
2023/04/16 01:35:35;;;;;;;20.95;5.18;;;;;;;8.03;100.00;101785.94;4962717;28;20113;-77
2023/04/16 01:38:01;;;;;;;20.10;4.57;;;;;;;7.99;100.00;101782.50;4976940;28;20554;-78
2023/04/16 01:40:26;;;;;;;17.23;5.43;;;;;;;8.02;100.00;101787.81;5006486;28;20039;-79
2023/04/16 01:42:52;;;;;;;21.92;5.20;;;;;;;8.01;100.00;101783.31;4973301;28;20042;-78
2023/04/16 01:45:17;;;;;;;27.67;6.80;;;;;;;8.03;100.00;101788.69;4955128;28;20134;-78
2023/04/16 01:47:43;;;;;;;28.17;5.57;;;;;;;8.05;100.00;101787.66;4957029;28;20520;-78
2023/04/16 01:50:10;;;;;;;28.27;6.00;;;;;;;8.04;100.00;101795.91;4975293;28;20050;-78
2023/04/16 01:52:36;;;;;;;22.70;6.75;;;;;;;8.06;100.00;101785.78;4984283;28;20066;-77
2023/04/16 01:55:02;;;;;;;12.80;5.25;;;;;;;8.08;100.00;101784.75;4965302;28;20090;-77
2023/04/16 01:57:27;;;;;;;23.92;7.07;;;;;;;8.14;100.00;101789.00;4979282;28;20517;-77
2023/04/16 01:59:53;;;;;;;23.05;6.78;;;;;;;8.08;100.00;101775.66;4994977;28;20121;-77
2023/04/16 02:02:18;;;;;;;26.88;6.32;;;;;;;8.07;100.00;101787.56;4974626;28;20078;-77
2023/04/16 02:04:44;;;;;;;18.38;6.00;;;;;;;8.07;100.00;101779.38;4962673;28;20058;-77
2023/04/16 02:07:10;;;;;;;30.95;7.35;;;;;;;8.06;100.00;101783.94;4975962;28;20109;-77
2023/04/16 02:09:38;;;;;;;18.77;6.05;;;;;;;8.08;100.00;101786.59;4970661;28;20039;-77
2023/04/16 02:12:03;;;;;;;21.98;6.63;;;;;;;8.07;100.00;101777.53;4959279;28;20039;-78
2023/04/16 02:14:30;;;;;;;27.90;7.10;;;;;;;8.07;100.00;101791.16;4971310;28;20097;-78
2023/04/16 02:16:55;;;;;;;14.77;7.88;;;;;;;8.07;100.00;101782.97;4966647;28;20436;-78
2023/04/16 02:19:21;;;;;;;24.35;8.20;;;;;;;8.12;100.00;101785.47;4977301;28;20054;-77
2023/04/16 02:21:47;;;;;;;22.05;7.07;;;;;;;8.13;100.00;101789.06;4984103;28;20039;-77
2023/04/16 02:24:12;;;;;;;23.58;6.72;;;;;;;8.10;100.00;101781.94;4996101;28;20027;-78
2023/04/16 02:26:38;;;;;;;28.27;7.72;;;;;;;8.13;100.00;101779.03;4971190;28;20043;-77
2023/04/16 02:29:04;;;;;;;31.33;7.78;;;;;;;8.08;100.00;101783.84;5006523;28;20058;-78
2023/04/16 02:31:30;;;;;;;18.98;7.80;;;;;;;8.12;100.00;101790.91;4986853;28;20047;-77
2023/04/16 02:33:55;;;;;;;30.42;8.93;;;;;;;8.14;100.00;101779.94;4970982;28;20058;-77
2023/04/16 02:36:21;;;;;;;33.60;8.75;;;;;;;8.07;100.00;101782.97;5004317;28;20027;-77
2023/04/16 02:38:46;;;;;;;26.13;8.77;;;;;;;8.08;100.00;101772.94;4952199;28;20126;-78
2023/04/16 02:41:12;;;;;;;20.38;7.97;;;;;;;8.25;100.00;101793.88;5004891;28;20039;-77
2023/04/16 02:43:37;;;;;;;15.48;8.30;;;;;;;8.13;100.00;101789.94;4959584;28;20510;-77
2023/04/16 02:46:03;;;;;;;21.45;7.75;;;;;;;8.10;100.00;101787.41;4999817;28;20049;-77
2023/04/16 02:48:28;;;;;;;15.55;8.07;;;;;;;8.09;100.00;101794.69;4962692;28;20039;-77
2023/04/16 02:50:54;;;;;;;20.38;7.72;;;;;;;8.16;100.00;101789.78;4963306;28;20544;-78
2023/04/16 02:53:20;;;;;;;27.15;8.55;;;;;;;8.18;100.00;101795.16;4961754;28;20046;-77
2023/04/16 02:55:52;;;;;;;25.75;8.85;;;;;;;8.21;100.00;101795.88;4964740;28;20039;-77
2023/04/16 02:58:23;;;;;;;23.75;8.60;;;;;;;8.18;100.00;101789.69;4976441;28;20451;-77
2023/04/16 03:00:48;;;;;;;20.98;8.82;;;;;;;8.20;100.00;101791.38;4964988;28;20039;-78
2023/04/16 03:03:14;;;;;;;36.05;10.48;;;;;;;8.25;100.00;101797.47;4984295;28;20348;-77
2023/04/16 03:05:39;;;;;;;24.58;8.98;;;;;;;8.24;100.00;101798.44;4975971;28;20046;-77
2023/04/16 03:08:05;;;;;;;22.67;8.20;;;;;;;8.23;100.00;101799.41;4965222;28;20050;-77
2023/04/16 03:10:31;;;;;;;21.02;7.63;;;;;;;8.25;100.00;101804.78;4970020;28;20689;-77
2023/04/16 03:12:56;;;;;;;21.70;8.75;;;;;;;8.21;100.00;101804.03;4961077;28;20035;-77
2023/04/16 03:15:22;;;;;;;25.52;8.98;;;;;;;8.32;100.00;101799.88;4972345;28;20039;-76
2023/04/16 03:17:47;;;;;;;29.88;9.35;;;;;;;8.25;100.00;101805.66;4989428;28;20099;-76
2023/04/16 03:20:16;;;;;;;37.00;9.85;;;;;;;8.28;100.00;101805.50;4952014;28;20038;-77
2023/04/16 03:22:41;;;;;;;25.33;8.38;;;;;;;8.28;100.00;101808.22;4957375;28;20383;-77
2023/04/16 03:25:10;;;;;;;34.47;9.00;;;;;;;8.31;100.00;101806.28;4964877;28;20043;-77
2023/04/16 03:27:35;;;;;;;18.63;6.80;;;;;;;8.29;100.00;101809.09;4962547;28;20122;-77
2023/04/16 03:30:01;;;;;;;21.75;8.65;;;;;;;8.27;100.00;101801.00;4990833;28;20189;-77
2023/04/16 03:32:27;;;;;;;22.58;8.20;;;;;;;8.26;100.00;101809.25;4970744;28;20027;-77
2023/04/16 03:34:52;;;;;;;35.17;8.52;;;;;;;8.30;100.00;101805.41;4969826;28;20048;-77
2023/04/16 03:37:18;;;;;;;30.10;8.75;;;;;;;8.23;100.00;101801.22;4925737;29;20122;-77
2023/04/16 03:39:43;;;;;;;23.85;8.90;;;;;;;8.30;100.00;101810.88;4968701;28;20125;-77
2023/04/16 03:42:09;;;;;;;24.17;9.05;;;;;;;8.29;100.00;101800.91;5002174;28;20065;-77
2023/04/16 03:44:34;;;;;;;29.38;8.27;;;;;;;8.27;100.00;101803.72;4981094;28;20486;-77
2023/04/16 03:47:02;;;;;;;28.20;8.65;;;;;;;8.27;100.00;101811.91;4957900;28;20038;-77
2023/04/16 03:49:28;;;;;;;23.77;9.27;;;;;;;8.26;100.00;101814.72;4955105;28;20097;-77
2023/04/16 03:51:53;;;;;;;26.00;8.60;;;;;;;8.22;100.00;101811.28;4981096;28;20050;-77
2023/04/16 03:54:19;;;;;;;38.38;10.18;;;;;;;8.27;100.00;101817.38;4968165;28;20043;-78
2023/04/16 03:56:45;;;;;;;37.08;9.73;;;;;;;8.34;100.00;101812.47;4972659;28;20066;-77
2023/04/16 03:59:10;;;;;;;32.83;10.07;;;;;;;8.36;100.00;101820.56;4962237;28;20138;-77
2023/04/16 04:01:36;;;;;;;24.80;9.32;;;;;;;8.33;100.00;101823.44;4970786;28;20169;-78
2023/04/16 04:04:02;;;;;;;25.60;9.75;;;;;;;8.32;100.00;101819.84;4975526;28;20065;-78
2023/04/16 04:06:27;;;;;;;28.42;9.82;;;;;;;8.31;100.00;101819.94;4975211;28;20134;-78
2023/04/16 04:08:53;;;;;;;36.10;11.30;;;;;;;8.30;100.00;101810.88;4963259;28;20118;-78
2023/04/16 04:11:18;;;;;;;30.08;10.63;;;;;;;8.28;100.00;101808.22;4955687;28;20070;-78
2023/04/16 04:13:44;;;;;;;43.97;10.02;;;;;;;8.33;100.00;101821.63;4966433;28;20106;-78
2023/04/16 04:16:10;;;;;;;27.17;10.13;;;;;;;8.29;100.00;101825.47;4977400;28;20519;-78
2023/04/16 04:18:35;;;;;;;34.47;11.82;;;;;;;8.29;100.00;101820.00;4955927;28;20444;-78
2023/04/16 04:21:05;;;;;;;38.33;11.95;;;;;;;8.31;100.00;101819.94;4965888;28;20433;-78
2023/04/16 04:23:31;;;;;;;40.90;11.02;;;;;;;8.34;100.00;101826.09;4987483;28;20050;-77
2023/04/16 04:25:56;;;;;;;33.97;11.18;;;;;;;8.35;100.00;101819.69;4972375;28;20047;-79
2023/04/16 04:28:22;;;;;;;31.48;11.13;;;;;;;8.23;100.00;101828.53;4939129;29;20033;-78
2023/04/16 04:30:47;;;;;;;40.65;12.02;;;;;;;8.24;100.00;101820.25;4981761;28;20077;-78
2023/04/16 04:33:13;;;;;;;38.08;12.25;;;;;;;8.29;100.00;101830.94;4975872;28;20126;-78
2023/04/16 04:35:38;;;;;;;29.50;12.00;;;;;;;8.29;100.00;101831.81;4976793;28;20117;-77
2023/04/16 04:38:04;;;;;;;41.90;14.10;;;;;;;8.29;100.00;101833.66;4965995;28;20418;-77
2023/04/16 04:40:29;;;;;;;38.58;12.90;;;;;;;8.25;100.00;101832.06;4976397;28;20030;-77
2023/04/16 04:42:55;;;;;;;41.72;13.02;;;;;;;8.25;100.00;101841.13;4977789;28;20046;-78
2023/04/16 04:45:20;;;;;;;37.00;12.77;;;;;;;8.27;100.00;101841.03;4991749;28;20114;-78
2023/04/16 04:47:45;;;;;;;36.22;13.23;;;;;;;8.29;100.00;101842.72;4986893;28;20043;-78
2023/04/16 04:50:14;;;;;;;48.58;14.75;;;;;;;8.31;100.00;101849.94;4973954;28;20100;-77
2023/04/16 04:52:39;;;;;;;62.03;14.18;;;;;;;8.32;100.00;101840.81;4976543;28;20125;-77
2023/04/16 04:55:05;;;;;;;42.17;14.23;;;;;;;8.29;100.00;101853.63;4976198;28;20118;-78
2023/04/16 04:57:30;;;;;;;43.88;14.98;;;;;;;8.33;100.00;101851.63;4994841;28;20499;-78
2023/04/16 04:59:56;;;;;;;51.92;15.65;;;;;;;8.21;100.00;101850.44;4925772;29;20119;-78
2023/04/16 05:02:22;;;;;;;47.13;16.85;;;;;;;8.16;100.00;101846.19;4957583;28;20035;-78
2023/04/16 05:04:47;;;;;;;48.63;17.13;;;;;;;8.24;100.00;101858.44;4962914;28;21891;-77
2023/04/16 05:07:13;;;;;;;51.80;16.58;;;;;;;8.31;100.00;101853.53;4968110;28;20069;-78
2023/04/16 05:09:38;;;;;;;57.33;17.75;;;;;;;8.23;100.00;101851.25;4974024;28;20122;-78
2023/04/16 05:12:04;;;;;;;58.35;19.15;;;;;;;8.30;100.00;101854.53;4970008;28;20383;-77
2023/04/16 05:14:29;;;;;;;62.63;18.90;;;;;;;8.31;100.00;101849.94;4993637;28;20047;-78
2023/04/16 05:16:55;;;;;;;53.83;19.23;;;;;;;8.22;100.00;101852.19;4976177;28;20066;-78
2023/04/16 05:19:20;;;;;;;63.75;18.50;;;;;;;8.26;100.00;101859.28;4974995;28;20474;-78
2023/04/16 05:21:46;;;;;;;60.45;20.40;;;;;;;8.31;100.00;101861.72;4973053;28;20121;-78
2023/04/16 05:24:11;;;;;;;55.25;19.80;;;;;;;8.33;100.00;101856.19;4976925;28;20145;-78
2023/04/16 05:26:37;;;;;;;50.17;19.23;;;;;;;8.26;100.00;101851.09;4983319;28;20043;-77
2023/04/16 05:29:02;;;;;;;63.13;20.40;;;;;;;8.24;100.00;101853.00;4977914;28;20105;-78
2023/04/16 05:31:27;;;;;;;57.28;20.50;;;;;;;8.29;100.00;101859.09;4972023;28;20453;-78
2023/04/16 05:33:53;;;;;;;57.03;20.35;;;;;;;8.26;100.00;101859.28;4972783;28;20054;-78
2023/04/16 05:36:18;;;;;;;59.33;19.45;;;;;;;8.33;100.00;101870.75;4972824;28;20478;-78
2023/04/16 05:38:44;;;;;;;63.33;20.02;;;;;;;8.34;100.00;101869.75;4959993;28;20398;-76
2023/04/16 05:41:09;;;;;;;76.93;20.98;;;;;;;8.37;100.00;101872.31;4984435;28;20483;-78
2023/04/16 05:43:35;;;;;;;56.35;21.15;;;;;;;8.43;100.00;101868.44;4984399;28;20031;-77
2023/04/16 05:46:00;;;;;;;73.05;22.38;;;;;;;8.41;100.00;101870.31;4961808;28;20034;-78
2023/04/16 05:48:25;;;;;;;62.30;20.13;;;;;;;8.37;100.00;101879.63;4936488;28;20039;-77
2023/04/16 05:50:51;;;;;;;74.05;22.17;;;;;;;8.40;100.00;101880.34;4966893;28;20054;-77
2023/04/16 05:53:17;;;;;;;66.32;21.80;;;;;;;8.43;100.00;101880.22;4985173;28;20042;-78
2023/04/16 05:55:43;;;;;;;56.85;19.80;;;;;;;8.42;100.00;101885.72;4968007;28;20039;-77
2023/04/16 05:58:08;;;;;;;53.30;20.42;;;;;;;8.42;100.00;101883.88;4973116;28;20509;-78
2023/04/16 06:00:34;;;;;;;73.63;21.38;;;;;;;8.42;100.00;101885.72;4969245;28;20030;-77
2023/04/16 06:03:01;;;;;;;53.38;20.85;;;;;;;8.45;100.00;101882.88;4961768;28;20450;-76
2023/04/16 06:05:26;;;;;;;70.15;22.35;;;;;;;8.43;100.00;101882.09;4965129;28;20026;-78
2023/04/16 06:07:52;;;;;;;62.00;19.98;;;;;;;8.43;100.00;101882.09;4976473;28;20487;-78
2023/04/16 06:10:17;;;;;;;68.25;20.38;;;;;;;8.37;100.00;101883.25;4952499;28;20038;-77
2023/04/16 06:12:43;;;;;;;69.72;21.27;;;;;;;8.41;100.00;101887.59;4972618;28;20516;-77
2023/04/16 06:15:08;;;;;;;68.63;20.85;;;;;;;8.44;100.00;101892.00;4972774;28;20108;-77
2023/04/16 06:17:34;;;;;;;72.07;21.88;;;;;;;8.45;100.00;101883.75;4946007;28;20046;-77
2023/04/16 06:19:59;;;;;;;64.00;20.83;;;;;;;8.61;100.00;101893.84;4971985;28;20395;-76
2023/04/16 06:22:25;;;;;;;69.43;20.98;;;;;;;8.60;100.00;101900.28;4957688;28;20058;-77
2023/04/16 06:24:52;;;;;;;72.57;21.15;;;;;;;8.54;100.00;101896.00;4938562;29;20042;-77
2023/04/16 06:27:17;;;;;;;58.92;20.08;;;;;;;8.57;100.00;101894.97;4996948;28;20127;-77
2023/04/16 06:29:43;;;;;;;62.72;20.05;;;;;;;8.62;100.00;101903.78;4968481;28;20121;-78
2023/04/16 06:32:09;;;;;;;65.07;20.85;;;;;;;8.69;100.00;101910.69;4958871;28;20403;-78
2023/04/16 06:34:34;;;;;;;70.80;21.88;;;;;;;8.66;100.00;101910.88;4962371;28;20047;-78
2023/04/16 06:37:03;;;;;;;67.32;21.67;;;;;;;8.69;100.00;101923.44;4972315;28;20810;-79
2023/04/16 06:39:28;;;;;;;63.97;20.52;;;;;;;8.65;100.00;101925.47;4986690;28;20034;-78
2023/04/16 06:41:54;;;;;;;64.57;20.52;;;;;;;8.69;100.00;101921.63;4966731;28;20082;-80
2023/04/16 06:44:20;;;;;;;66.30;20.95;;;;;;;8.68;100.00;101929.91;4941184;28;20446;-79
2023/04/16 06:46:45;;;;;;;54.75;19.27;;;;;;;8.65;100.00;101915.41;4969416;28;20039;-79
2023/04/16 06:49:11;;;;;;;59.75;18.50;;;;;;;8.69;100.00;101932.53;4971312;28;20517;-79
2023/04/16 06:51:36;;;;;;;60.22;19.25;;;;;;;8.69;100.00;101937.09;4952548;28;20514;-78
2023/04/16 06:54:02;;;;;;;75.90;21.08;;;;;;;8.71;100.00;101938.78;4983340;28;20050;-79
2023/04/16 06:56:27;;;;;;;56.80;19.25;;;;;;;8.72;100.00;101926.88;4953100;28;20185;-80
2023/04/16 06:58:56;;;;;;;58.20;18.40;;;;;;;8.81;100.00;101934.59;4965201;28;20122;-81
2023/04/16 07:01:22;;;;;;;67.72;19.15;;;;;;;8.78;100.00;101934.75;4959925;28;20501;-79
2023/04/16 07:03:47;;;;;;;60.05;19.70;;;;;;;8.78;100.00;101932.03;4977538;28;20043;-78
2023/04/16 07:06:12;;;;;;;61.13;18.92;;;;;;;8.83;100.00;101943.56;4994206;28;20039;-80
2023/04/16 07:08:38;;;;;;;73.05;20.40;;;;;;;8.82;100.00;101940.94;4978630;28;20038;-79
2023/04/16 07:11:03;;;;;;;57.33;19.30;;;;;;;8.79;100.00;101939.25;4970036;28;20428;-79
2023/04/16 07:13:29;;;;;;;61.10;19.77;;;;;;;8.78;100.00;101951.13;4987125;28;20512;-78
2023/04/16 07:15:54;;;;;;;63.53;20.02;;;;;;;8.78;100.00;101939.34;4951834;28;20035;-79
2023/04/16 07:18:20;;;;;;;56.67;19.42;;;;;;;8.80;100.00;101948.31;4959958;28;20047;-77
2023/04/16 07:20:46;;;;;;;64.60;20.00;;;;;;;8.85;100.00;101951.69;4999410;28;20041;-78
2023/04/16 07:23:11;;;;;;;57.20;19.52;;;;;;;8.90;100.00;101957.78;4965480;28;20027;-77
2023/04/16 07:25:37;;;;;;;53.65;19.10;;;;;;;8.94;100.00;101947.59;4982379;28;20069;-77
2023/04/16 07:28:03;;;;;;;58.17;19.20;;;;;;;8.95;100.00;101955.72;4956405;28;20090;-77
2023/04/16 07:30:33;;;;;;;62.97;19.77;;;;;;;9.00;100.00;101959.06;4959756;28;20118;-77
2023/04/16 07:33:05;;;;;;;52.10;17.00;;;;;;;9.06;100.00;101965.16;4969667;28;20152;-77
2023/04/16 07:35:30;;;;;;;61.17;20.88;;;;;;;9.02;100.00;101959.84;4975261;28;20398;-77
2023/04/16 07:37:56;;;;;;;68.32;21.27;;;;;;;9.07;100.00;101969.63;4978852;28;20108;-77
2023/04/16 07:40:22;;;;;;;69.97;20.52;;;;;;;8.96;100.00;101971.09;4972553;28;20086;-77
2023/04/16 07:42:48;;;;;;;61.03;20.45;;;;;;;8.95;100.00;101977.56;4989006;28;20039;-78
2023/04/16 07:45:13;;;;;;;65.97;20.42;;;;;;;9.00;100.00;101982.75;4982091;28;20097;-77
2023/04/16 07:47:38;;;;;;;69.78;20.88;;;;;;;8.96;100.00;101978.44;4971988;28;20223;-77
2023/04/16 07:50:05;;;;;;;68.60;22.20;;;;;;;8.99;100.00;101981.88;4943698;28;20828;-76
2023/04/16 07:52:30;;;;;;;65.20;20.05;;;;;;;8.97;100.00;101985.66;4967526;28;20054;-76
2023/04/16 07:54:55;;;;;;;72.10;21.25;;;;;;;8.98;100.00;101987.41;4978219;28;20113;-77
2023/04/16 07:57:21;;;;;;;80.07;21.98;;;;;;;9.08;100.00;101990.53;4973907;28;20098;-77
2023/04/16 07:59:46;;;;;;;61.85;21.63;;;;;;;9.08;100.00;101987.81;4971640;28;20042;-78
2023/04/16 08:02:15;;;;;;;63.53;21.42;;;;;;;9.28;100.00;101993.06;4969948;28;20442;-77
2023/04/16 08:04:41;;;;;;;62.88;22.13;;;;;;;9.22;100.00;101993.41;4992788;28;20473;-77
2023/04/16 08:07:09;;;;;;;67.53;21.90;;;;;;;9.45;100.00;101991.25;4974527;28;20107;-78
2023/04/16 08:09:35;;;;;;;69.55;22.67;;;;;;;9.28;100.00;102000.34;4962829;28;20491;-77
2023/04/16 08:12:01;;;;;;;60.05;21.15;;;;;;;9.18;100.00;102003.63;4977802;28;20131;-79
2023/04/16 08:14:27;;;;;;;66.40;22.02;;;;;;;9.09;100.00;101995.91;5001148;28;20170;-77
2023/04/16 08:16:52;;;;;;;70.07;19.88;;;;;;;9.18;100.00;102011.81;4975784;28;20070;-77
2023/04/16 08:19:18;;;;;;;68.18;21.15;;;;;;;9.29;100.00;102013.94;4965593;28;20049;-77
2023/04/16 08:21:44;;;;;;;68.03;23.15;;;;;;;9.33;100.00;102009.19;4969646;28;20046;-77
2023/04/16 08:24:10;;;;;;;58.05;19.95;;;;;;;9.44;100.00;102014.06;4974639;28;20047;-77
2023/04/16 08:26:36;;;;;;;61.40;22.55;;;;;;;9.46;100.00;102015.75;4978157;28;20035;-77
2023/04/16 08:29:03;;;;;;;50.92;21.77;;;;;;;9.56;100.00;102027.94;4974851;28;20051;-77
2023/04/16 08:31:29;;;;;;;62.72;21.25;;;;;;;9.51;100.00;102020.94;4951190;28;20031;-79
2023/04/16 08:33:54;;;;;;;65.88;22.90;;;;;;;9.50;100.00;102027.41;4978533;28;20037;-78
2023/04/16 08:36:20;;;;;;;60.78;22.15;;;;;;;9.36;100.00;102022.69;5006561;28;20045;-78
2023/04/16 08:38:45;;;;;;;68.20;23.83;;;;;;;9.42;100.00;102032.41;4959737;28;20045;-78
2023/04/16 08:41:14;;;;;;;52.92;22.27;;;;;;;9.44;100.00;102027.75;4978088;28;20050;-78
2023/04/16 08:43:44;;;;;;;53.97;22.90;;;;;;;9.53;100.00;102029.97;4969302;28;20054;-79
2023/04/16 08:46:15;;;;;;;63.10;22.40;;;;;;;9.46;100.00;102036.72;4968273;28;20035;-79
2023/04/16 08:48:42;;;;;;;55.65;21.35;;;;;;;9.54;100.00;102039.91;4970945;28;20122;-78
2023/04/16 08:51:09;;;;;;;66.72;22.83;;;;;;;9.55;100.00;102036.22;4975372;28;20062;-78
2023/04/16 08:53:42;;;;;;;63.42;22.63;;;;;;;9.59;100.00;102045.13;4988162;28;20045;-77
2023/04/16 08:56:10;;;;;;;60.67;23.30;;;;;;;9.75;100.00;102037.84;4967482;28;20038;-77
2023/04/16 08:58:38;;;;;;;58.67;23.27;;;;;;;9.66;100.00;102049.31;4963845;28;20035;-77
2023/04/16 09:01:04;;;;;;;70.53;24.17;;;;;;;9.65;100.00;102051.13;4986025;28;20031;-77
2023/04/16 09:03:33;;;;;;;58.35;22.17;;;;;;;9.64;100.00;102049.41;4987580;28;21613;-77
2023/04/16 09:05:59;;;;;;;62.22;23.20;;;;;;;9.71;100.00;102056.28;4952515;28;20047;-77
2023/04/16 09:08:29;;;;;;;65.03;21.98;;;;;;;9.70;100.00;102049.03;4963814;28;20039;-76
2023/04/16 09:10:58;;;;;;;55.58;22.20;;;;;;;9.82;100.00;102052.94;4975839;28;20063;-76
2023/04/16 09:13:24;;;;;;;62.63;23.23;;;;;;;9.89;100.00;102057.09;4972257;28;20082;-76
2023/04/16 09:15:55;;;;;;;52.88;22.27;;;;;;;10.03;100.00;102056.28;4961740;28;20031;-77
2023/04/16 09:18:21;;;;;;;54.30;22.00;;;;;;;10.19;100.00;102048.06;4994053;28;20059;-76
2023/04/16 09:20:51;;;;;;;58.00;22.60;;;;;;;10.30;100.00;102053.81;4967300;28;20458;-76
2023/04/16 09:23:17;;;;;;;54.53;22.42;;;;;;;10.46;100.00;102055.66;4967097;28;20035;-76
2023/04/16 09:25:42;;;;;;;61.35;22.70;;;;;;;10.43;100.00;102053.13;4964000;28;20102;-75
2023/04/16 09:28:09;;;;;;;47.55;20.13;;;;;;;10.51;100.00;102052.66;4963365;28;20045;-76
2023/04/16 09:30:36;;;;;;;49.95;20.05;;;;;;;10.51;100.00;102050.81;4970407;28;20146;-77
2023/04/16 09:33:21;;;;;;;53.53;20.40;;;;;;;10.41;100.00;102055.97;4975614;28;20501;-77
2023/04/16 09:35:49;;;;;;;52.78;21.02;;;;;;;10.38;100.00;102061.59;4934290;29;20407;-78
2023/04/16 09:38:15;;;;;;;57.95;21.42;;;;;;;10.38;100.00;102057.97;4972083;28;20379;-77
2023/04/16 09:40:41;;;;;;;59.35;22.50;;;;;;;10.31;100.00;102062.88;4966685;28;20032;-78
2023/04/16 09:43:15;;;;;;;57.00;23.00;;;;;;;10.53;100.00;102069.91;4994558;28;20141;-79
2023/04/16 09:45:53;;;;;;;54.17;22.27;;;;;;;10.82;100.00;102068.13;4972973;28;20501;-79
2023/04/16 09:48:30;;;;;;;51.00;22.30;;;;;;;10.83;100.00;102068.03;4971172;28;20042;-79
2023/04/16 09:50:55;;;;;;;48.55;23.13;;;;;;;10.81;100.00;102064.50;4946424;28;20101;-78
2023/04/16 09:53:29;;;;;;;47.42;22.65;;;;;;;10.91;100.00;102074.91;4949859;28;20038;-77
2023/04/16 09:55:56;;;;;;;51.78;22.08;;;;;;;10.93;100.00;102082.06;4972947;28;20057;-77
2023/04/16 09:58:23;;;;;;;50.63;21.35;;;;;;;10.77;100.00;102082.13;4972932;28;20046;-78
2023/04/16 10:00:49;;;;;;;44.05;20.83;;;;;;;10.63;100.00;102073.84;4974477;28;20026;-78
2023/04/16 10:03:16;;;;;;;45.88;19.80;;;;;;;10.88;100.00;102072.38;4966718;28;20030;-77
2023/04/16 10:05:41;;;;;;;56.28;21.48;;;;;;;11.19;100.00;102082.31;4962327;28;20080;-77
2023/04/16 10:08:16;;;;;;;49.13;21.92;;;;;;;11.33;100.00;102084.19;4982388;28;20502;-77
2023/04/16 10:10:41;;;;;;;49.15;21.25;;;;;;;11.27;100.00;102081.84;4969857;28;20498;-79
2023/04/16 10:13:07;;;;;;;49.97;20.23;;;;;;;11.32;100.00;102087.91;4956205;28;20046;-78
2023/04/16 10:15:33;;;;;;;51.72;20.50;;;;;;;11.09;100.00;102076.53;4991430;28;20114;-78
2023/04/16 10:17:59;;;;;;;46.35;19.42;;;;;;;11.07;100.00;102086.72;4979715;28;20039;-79
2023/04/16 10:20:25;;;;;;;48.88;21.30;;;;;;;10.88;100.00;102089.66;4992853;28;20042;-79
2023/04/16 10:22:53;;;;;;;51.30;20.25;;;;;;;11.03;100.00;102088.75;4972012;28;20039;-77
2023/04/16 10:25:19;;;;;;;55.00;21.27;;;;;;;11.16;100.00;102083.38;4970612;28;20399;-77
2023/04/16 10:27:45;;;;;;;43.20;20.55;;;;;;;11.13;100.00;102083.56;4989552;28;20042;-78
2023/04/16 10:30:12;;;;;;;44.05;19.92;;;;;;;11.22;100.00;102088.47;4973699;28;20043;-78
2023/04/16 10:32:37;;;;;;;42.05;20.10;;;;;;;11.38;100.00;102082.94;4969586;28;20078;-78
2023/04/16 10:35:04;;;;;;;41.65;20.50;;;;;;;11.70;100.00;102088.22;4971490;28;20133;-77
2023/04/16 10:37:30;;;;;;;38.13;19.30;;;;;;;11.97;100.00;102094.81;4955492;29;20039;-76
2023/04/16 10:39:57;;;;;;;36.95;17.85;;;;;;;12.30;100.00;102092.59;4964627;28;20533;-76
2023/04/16 10:42:24;;;;;;;37.70;18.17;;;;;;;12.80;100.00;102095.63;4971768;28;20537;-77
2023/04/16 10:44:50;;;;;;;35.97;17.88;;;;;;;13.15;100.00;102096.91;4972735;28;20038;-77
2023/04/16 10:47:16;;;;;;;44.72;18.58;;;;;;;12.87;100.00;102087.84;4990440;28;20180;-78
2023/04/16 10:49:42;;;;;;;42.38;19.73;;;;;;;12.95;100.00;102084.56;4992692;28;20050;-78
2023/04/16 10:52:15;;;;;;;41.88;19.77;;;;;;;12.71;100.00;102081.63;4968508;28;20050;-77
2023/04/16 10:54:41;;;;;;;33.70;17.08;;;;;;;12.86;100.00;102078.72;4962672;28;20043;-77
2023/04/16 10:57:16;;;;;;;41.22;18.67;;;;;;;13.07;100.00;102075.47;4962099;28;20042;-78
2023/04/16 10:59:43;;;;;;;34.00;17.55;;;;;;;13.18;100.00;102071.94;4954638;29;20113;-77
2023/04/16 11:02:13;;;;;;;38.15;19.48;;;;;;;13.25;100.00;102076.06;4958892;28;20444;-77
2023/04/16 11:04:41;;;;;;;40.95;17.67;;;;;;;13.12;100.00;102083.38;4966579;28;20049;-78
2023/04/16 11:07:10;;;;;;;40.97;17.88;;;;;;;12.93;100.00;102081.06;4993085;28;20449;-78